createdAt,value
2017-09-09T00:00:16.027Z,93.30
2017-09-09T00:02:43.587Z,93.60
2017-09-09T00:05:11.148Z,93.30
2017-09-09T00:07:38.753Z,93.30
2017-09-09T00:10:06.327Z,93.30
2017-09-09T00:12:33.887Z,93.30
2017-09-09T00:15:04.614Z,93.30
2017-09-09T00:17:32.177Z,93.30
2017-09-09T00:19:59.747Z,93.30
2017-09-09T00:22:27.353Z,93.30
2017-09-09T00:24:54.954Z,93.70
2017-09-09T00:27:22.511Z,93.30
2017-09-09T00:29:50.474Z,93.30
2017-09-09T00:32:18.035Z,93.30
2017-09-09T00:34:45.597Z,93.30
2017-09-09T00:37:13.186Z,93.30
2017-09-09T00:39:40.785Z,93.60
2017-09-09T00:42:08.363Z,93.30
2017-09-09T00:44:35.965Z,93.30
2017-09-09T00:47:03.605Z,93.30
2017-09-09T00:49:31.159Z,93.30
2017-09-09T00:51:58.768Z,93.30
2017-09-09T00:54:27.101Z,93.30
2017-09-09T00:56:54.694Z,93.30
2017-09-09T00:59:22.252Z,93.30
2017-09-09T01:01:52.257Z,93.30
2017-09-09T01:04:19.817Z,93.30
2017-09-09T01:06:47.415Z,93.30
2017-09-09T01:09:14.969Z,93.30
2017-09-09T01:11:43.338Z,93.30
2017-09-09T01:14:10.998Z,93.30
2017-09-09T01:16:38.608Z,93.30
2017-09-09T01:19:06.701Z,93.30
2017-09-09T01:21:34.270Z,93.30
2017-09-09T01:24:01.838Z,93.30
2017-09-09T01:26:29.446Z,93.30
2017-09-09T01:28:57.036Z,93.20
2017-09-09T01:31:24.652Z,93.20
2017-09-09T01:33:52.220Z,93.20
2017-09-09T01:36:20.863Z,93.20
2017-09-09T01:38:48.427Z,93.20
2017-09-09T01:41:16.055Z,93.20
2017-09-09T01:43:43.597Z,93.20
2017-09-09T01:46:11.241Z,93.20
2017-09-09T01:48:39.585Z,93.20
2017-09-09T01:51:09.000Z,93.20
2017-09-09T01:53:36.564Z,93.20
2017-09-09T01:56:04.105Z,93.20
2017-09-09T01:58:31.698Z,93.20
2017-09-09T02:00:59.269Z,93.20
2017-09-09T02:03:26.885Z,93.20
2017-09-09T02:05:54.533Z,93.20
2017-09-09T02:08:22.085Z,93.20
2017-09-09T02:10:49.692Z,93.20
2017-09-09T02:13:17.246Z,93.20
2017-09-09T02:15:45.102Z,93.20
2017-09-09T02:18:12.698Z,93.10
2017-09-09T02:20:40.271Z,93.10
2017-09-09T02:23:11.882Z,93.10
2017-09-09T02:25:39.522Z,93.10
2017-09-09T02:28:07.486Z,93.10
2017-09-09T02:30:35.038Z,93.20
2017-09-09T02:33:02.637Z,93.20
2017-09-09T02:35:33.885Z,93.20
2017-09-09T02:38:02.091Z,93.20
2017-09-09T02:40:29.642Z,93.20
2017-09-09T02:42:58.297Z,93.20
2017-09-09T02:45:25.864Z,93.10
2017-09-09T02:47:53.428Z,93.10
2017-09-09T02:50:22.406Z,93.20
2017-09-09T02:52:50.025Z,93.20
2017-09-09T02:55:17.590Z,93.10
2017-09-09T02:57:45.605Z,93.10
2017-09-09T03:00:13.155Z,93.10
2017-09-09T03:02:40.715Z,93.10
2017-09-09T03:05:08.351Z,93.10
2017-09-09T03:07:35.946Z,93.10
2017-09-09T03:10:03.513Z,93.10
2017-09-09T03:12:32.003Z,93.10
2017-09-09T03:14:59.818Z,93.10
2017-09-09T03:17:27.380Z,93.10
2017-09-09T03:19:54.969Z,93.10
2017-09-09T03:22:22.563Z,93.10
2017-09-09T03:24:50.118Z,93.10
2017-09-09T03:27:18.080Z,93.10
2017-09-09T03:29:46.422Z,93.10
2017-09-09T03:32:13.983Z,93.20
2017-09-09T03:34:41.569Z,93.20
2017-09-09T03:37:09.134Z,93.20
2017-09-09T03:39:37.085Z,93.20
2017-09-09T03:42:04.656Z,93.20
2017-09-09T03:44:32.222Z,93.10
2017-09-09T03:46:59.975Z,93.10
2017-09-09T03:49:27.571Z,93.10
2017-09-09T03:51:55.171Z,93.10
2017-09-09T03:54:24.086Z,93.10
2017-09-09T03:56:51.639Z,93.10
2017-09-09T03:59:19.201Z,93.10
2017-09-09T04:01:47.289Z,93.10
2017-09-09T04:04:14.841Z,93.10
2017-09-09T04:06:42.396Z,93.10
2017-09-09T04:09:10.370Z,93.20
2017-09-09T04:11:37.945Z,93.20
2017-09-09T04:14:06.254Z,93.20
2017-09-09T04:16:33.851Z,93.10
2017-09-09T04:19:01.393Z,93.20
2017-09-09T04:21:28.989Z,93.20
2017-09-09T04:23:56.575Z,93.20
2017-09-09T04:26:24.182Z,93.20
2017-09-09T04:28:51.754Z,93.20
2017-09-09T04:31:19.394Z,93.20
2017-09-09T04:33:47.332Z,93.10
2017-09-09T04:36:14.917Z,93.20
2017-09-09T04:38:42.481Z,93.20
2017-09-09T04:41:10.234Z,93.20
2017-09-09T04:43:37.793Z,93.10
2017-09-09T04:46:05.393Z,93.10
2017-09-09T04:48:32.949Z,93.00
2017-09-09T04:51:00.498Z,93.00
2017-09-09T04:53:28.194Z,92.80
2017-09-09T04:55:55.745Z,92.60
2017-09-09T04:58:23.281Z,92.50
2017-09-09T05:00:50.922Z,92.40
2017-09-09T05:03:18.521Z,92.30
2017-09-09T05:05:46.107Z,92.30
2017-09-09T05:08:13.663Z,92.20
2017-09-09T05:10:41.261Z,92.20
2017-09-09T05:13:08.798Z,92.20
2017-09-09T05:15:37.357Z,92.20
2017-09-09T05:18:04.907Z,92.20
2017-09-09T05:20:32.510Z,92.10
2017-09-09T05:23:00.814Z,92.20
2017-09-09T05:25:28.405Z,92.10
2017-09-09T05:27:55.962Z,92.40
2017-09-09T05:30:23.562Z,92.00
2017-09-09T05:32:51.109Z,92.00
2017-09-09T05:35:18.699Z,92.00
2017-09-09T05:37:47.021Z,92.00
2017-09-09T05:40:14.610Z,92.00
2017-09-09T05:42:42.171Z,92.00
2017-09-09T05:45:10.037Z,92.10
2017-09-09T05:47:37.595Z,92.00
2017-09-09T05:50:05.160Z,92.10
2017-09-09T05:52:32.766Z,92.00
2017-09-09T05:55:00.365Z,92.10
2017-09-09T05:57:27.961Z,92.00
2017-09-09T05:59:55.662Z,92.00
2017-09-09T06:02:23.209Z,92.00
2017-09-09T06:04:51.900Z,92.00
2017-09-09T06:07:19.521Z,92.00
2017-09-09T06:09:47.076Z,91.90
2017-09-09T06:12:15.435Z,91.90
2017-09-09T06:14:44.166Z,91.90
2017-09-09T06:17:11.987Z,91.90
2017-09-09T06:19:39.614Z,92.00
2017-09-09T06:22:07.492Z,92.00
2017-09-09T06:24:36.158Z,92.00
2017-09-09T06:27:03.781Z,92.00
2017-09-09T06:29:31.385Z,92.00
2017-09-09T06:31:59.188Z,92.00
2017-09-09T06:34:26.897Z,92.00
2017-09-09T06:36:54.491Z,92.00
2017-09-09T06:39:22.041Z,92.10
2017-09-09T06:41:49.940Z,92.20
2017-09-09T06:44:18.942Z,92.20
2017-09-09T06:46:46.491Z,92.20
2017-09-09T06:49:14.053Z,92.10
2017-09-09T07:08:45.861Z,92.00
2017-09-09T07:11:14.224Z,92.00
2017-09-09T07:13:41.773Z,92.00
2017-09-09T07:16:10.662Z,92.00
2017-09-09T07:18:38.592Z,92.00
2017-09-09T07:21:06.174Z,91.90
2017-09-09T07:23:33.800Z,91.90
2017-09-09T07:26:01.405Z,91.90
2017-09-09T07:28:28.975Z,91.90
2017-09-09T07:31:02.017Z,91.90
2017-09-09T07:33:29.569Z,91.80
2017-09-09T07:35:59.515Z,91.70
2017-09-09T07:38:28.011Z,91.90
2017-09-09T07:40:55.611Z,91.70
2017-09-09T07:43:24.065Z,91.70
2017-09-09T07:45:51.607Z,91.70
2017-09-09T07:48:19.158Z,91.60
2017-09-09T07:50:46.750Z,91.50
2017-09-09T07:53:14.317Z,91.60
2017-09-09T07:55:42.281Z,91.60
2017-09-09T07:58:09.844Z,91.70
2017-09-09T08:00:37.401Z,91.70
2017-09-09T08:03:05.130Z,91.80
2017-09-09T08:05:32.741Z,91.80
2017-09-09T08:08:01.441Z,91.80
2017-09-09T08:10:29.772Z,91.80
2017-09-09T08:12:57.313Z,91.70
2017-09-09T08:15:25.213Z,91.80
2017-09-09T08:17:53.182Z,91.70
2017-09-09T08:20:20.755Z,91.70
2017-09-09T08:22:48.829Z,91.60
2017-09-09T08:25:16.385Z,91.60
2017-09-09T08:27:43.941Z,91.50
2017-09-09T08:30:12.006Z,91.60
2017-09-09T08:32:39.558Z,91.60
2017-09-09T08:35:07.109Z,91.70
2017-09-09T08:37:34.697Z,91.80
2017-09-09T08:40:02.237Z,91.90
2017-09-09T08:42:30.109Z,91.70
2017-09-09T08:44:57.678Z,91.40
2017-09-09T08:47:25.235Z,91.40
2017-09-09T08:49:52.844Z,91.30
2017-09-09T08:52:25.016Z,91.10
2017-09-09T08:54:52.585Z,91.10
2017-09-09T08:57:28.282Z,91.00
2017-09-09T09:00:03.587Z,90.90
2017-09-09T09:02:35.567Z,90.80
2017-09-09T09:05:03.203Z,90.80
2017-09-09T09:07:31.130Z,90.60
2017-09-09T09:09:58.802Z,90.70
2017-09-09T09:12:27.282Z,90.70
2017-09-09T09:14:55.184Z,90.70
2017-09-09T09:23:20.239Z,90.90
2017-09-09T09:25:47.909Z,90.90
2017-09-09T09:28:15.528Z,90.90
2017-09-09T09:30:43.071Z,90.90
2017-09-09T09:33:11.404Z,91.50
2017-09-09T09:35:39.366Z,91.10
2017-09-09T09:38:06.902Z,91.10
2017-09-09T09:40:34.448Z,91.40
2017-09-09T09:43:02.799Z,91.10
2017-09-09T09:45:30.580Z,91.10
2017-09-09T09:48:00.175Z,91.30
2017-09-09T09:50:27.834Z,91.30
2017-09-09T09:52:55.438Z,91.30
2017-09-09T09:55:23.009Z,91.20
2017-09-09T09:57:50.596Z,91.10
2017-09-09T10:00:19.769Z,91.10
2017-09-09T10:02:53.265Z,91.00
2017-09-09T10:05:20.923Z,91.00
2017-09-09T10:07:49.486Z,90.90
2017-09-09T10:10:17.271Z,90.90
2017-09-09T10:12:44.969Z,90.90
2017-09-09T10:15:14.372Z,91.00
2017-09-09T10:17:42.641Z,91.00
2017-09-09T10:26:19.680Z,90.60
2017-09-09T10:28:47.710Z,90.50
2017-09-09T10:31:18.167Z,90.40
2017-09-09T10:33:45.780Z,90.50
2017-09-09T10:36:13.697Z,90.30
2017-09-09T10:38:41.251Z,90.30
2017-09-09T10:41:09.961Z,90.40
2017-09-09T10:43:40.913Z,90.40
2017-09-09T10:46:09.830Z,90.40
2017-09-09T10:48:37.558Z,90.20
2017-09-09T10:51:10.341Z,90.10
2017-09-09T10:53:37.997Z,90.30
2017-09-09T10:56:05.568Z,89.90
2017-09-09T10:58:33.206Z,89.40
2017-09-09T11:01:00.785Z,88.90
2017-09-09T11:03:28.690Z,88.20
2017-09-09T11:05:57.075Z,86.50
2017-09-09T11:08:24.769Z,86.50
2017-09-09T11:10:52.370Z,87.00
2017-09-09T11:13:21.122Z,87.70
2017-09-09T11:15:48.985Z,87.10
2017-09-09T11:18:16.617Z,87.30
2017-09-09T11:20:46.288Z,87.90
2017-09-09T11:23:20.847Z,87.90
2017-09-09T11:25:55.735Z,88.30
2017-09-09T11:28:23.407Z,88.50
2017-09-09T11:30:51.039Z,88.70
2017-09-09T11:33:19.148Z,88.70
2017-09-09T11:35:46.713Z,89.10
2017-09-09T11:38:14.261Z,89.30
2017-09-09T11:40:44.274Z,90.00
2017-09-09T11:43:11.956Z,89.30
2017-09-09T11:45:40.303Z,89.60
2017-09-09T11:48:08.242Z,89.60
2017-09-09T11:50:36.225Z,89.60
2017-09-09T11:53:03.882Z,89.70
2017-09-09T11:55:35.152Z,89.80
2017-09-09T11:58:06.629Z,89.90
2017-09-09T12:00:34.270Z,89.90
2017-09-09T12:03:01.921Z,89.70
2017-09-09T12:05:29.549Z,90.00
2017-09-09T12:07:57.194Z,90.00
2017-09-09T12:10:24.782Z,89.80
2017-09-09T12:12:52.394Z,89.60
2017-09-09T12:15:24.896Z,89.60
2017-09-09T12:17:54.261Z,89.30
2017-09-09T12:20:21.949Z,89.20
2017-09-09T12:25:22.170Z,88.90
2017-09-09T12:27:49.766Z,88.60
2017-09-09T12:30:18.080Z,88.20
2017-09-09T12:32:45.627Z,88.20
2017-09-09T12:35:13.743Z,88.40
2017-09-09T12:37:41.318Z,88.50
2017-09-09T12:40:08.947Z,88.50
2017-09-09T12:42:36.742Z,88.80
2017-09-09T12:45:04.303Z,89.00
2017-09-09T12:47:31.910Z,89.50
2017-09-09T12:49:59.465Z,89.20
2017-09-09T12:52:27.173Z,89.00
2017-09-09T12:54:54.779Z,88.40
2017-09-09T13:06:09.083Z,88.30
2017-09-09T13:08:39.174Z,87.70
2017-09-09T13:11:10.166Z,87.60
2017-09-09T13:13:40.278Z,87.70
2017-09-09T13:16:08.036Z,88.10
2017-09-09T13:18:35.679Z,88.10
2017-09-09T13:21:03.372Z,88.00
2017-09-09T13:23:30.937Z,87.90
2017-09-09T13:25:58.670Z,87.30
2017-09-09T13:28:28.564Z,87.30
2017-09-09T13:30:56.263Z,87.50
2017-09-09T13:33:23.849Z,87.90
2017-09-09T13:35:51.437Z,88.10
2017-09-09T13:38:19.039Z,88.20
2017-09-09T13:40:49.890Z,87.80
2017-09-09T13:46:29.382Z,87.90
2017-09-09T13:51:53.407Z,88.10
2017-09-09T13:54:23.199Z,87.90
2017-09-09T13:56:51.609Z,87.80
2017-09-09T13:59:19.186Z,87.80
2017-09-09T14:01:47.630Z,87.70
2017-09-09T14:04:15.250Z,87.50
2017-09-09T14:06:42.944Z,87.50
2017-09-09T14:09:10.509Z,87.10
2017-09-09T14:11:38.133Z,86.70
2017-09-09T14:14:05.698Z,86.60
2017-09-09T14:16:33.648Z,86.40
2017-09-09T14:19:01.263Z,86.70
2017-09-09T14:21:31.618Z,86.40
2017-09-09T14:23:59.289Z,86.30
2017-09-09T14:26:27.291Z,86.40
2017-09-09T14:28:57.674Z,86.60
2017-09-09T14:31:25.307Z,86.10
2017-09-09T14:33:52.991Z,85.70
2017-09-09T14:36:21.473Z,84.90
2017-09-09T14:38:49.130Z,84.80
2017-09-09T14:41:17.583Z,85.00
2017-09-09T14:43:45.188Z,85.00
2017-09-09T14:46:12.855Z,84.70
2017-09-09T14:48:40.513Z,84.50
2017-09-09T14:51:10.799Z,84.60
2017-09-09T14:53:38.421Z,84.60
2017-09-09T14:56:06.074Z,84.30
2017-09-09T14:58:34.441Z,83.70
2017-09-09T15:01:02.381Z,83.50
2017-09-09T15:03:30.037Z,83.60
2017-09-09T15:05:57.691Z,83.90
2017-09-09T15:08:25.355Z,83.80
2017-09-09T15:10:53.035Z,83.90
2017-09-09T15:13:20.616Z,83.90
2017-09-09T15:15:48.345Z,83.70
2017-09-09T15:18:16.066Z,83.40
2017-09-09T15:20:43.783Z,83.30
2017-09-09T15:23:11.447Z,83.30
2017-09-09T15:25:39.255Z,83.10
2017-09-09T15:28:06.857Z,83.20
2017-09-09T15:30:34.475Z,82.70
2017-09-09T15:33:02.259Z,82.30
2017-09-09T15:35:29.842Z,82.40
2017-09-09T15:38:03.300Z,82.00
2017-09-09T15:40:32.071Z,81.50
2017-09-09T15:43:00.012Z,81.60
2017-09-09T15:45:27.618Z,81.80
2017-09-09T15:47:55.286Z,81.90
2017-09-09T15:50:23.093Z,82.30
2017-09-09T15:52:51.446Z,82.50
2017-09-09T15:55:19.094Z,82.90
2017-09-09T15:57:47.229Z,83.30
2017-09-09T16:00:14.876Z,83.40
2017-09-09T16:02:42.493Z,83.30
2017-09-09T16:05:10.790Z,83.50
2017-09-09T16:07:38.448Z,83.50
2017-09-09T16:10:06.155Z,82.90
2017-09-09T16:12:34.549Z,82.50
2017-09-09T16:15:02.971Z,82.40
2017-09-09T16:17:30.727Z,82.20
2017-09-09T16:19:58.287Z,82.20
2017-09-09T16:22:25.866Z,82.40
2017-09-09T16:24:53.431Z,82.50
2017-09-09T16:27:21.183Z,82.80
2017-09-09T16:29:48.727Z,82.80
2017-09-09T16:32:16.285Z,83.00
2017-09-09T16:34:43.978Z,83.30
2017-09-09T16:37:11.546Z,83.40
2017-09-09T16:39:39.159Z,83.70
2017-09-09T16:42:07.479Z,84.10
2017-09-09T16:44:35.082Z,84.10
2017-09-09T16:47:02.746Z,84.30
2017-09-09T16:49:31.101Z,84.70
2017-09-09T16:51:58.849Z,84.70
2017-09-09T16:54:26.407Z,84.90
2017-09-09T16:56:54.410Z,85.00
2017-09-09T16:59:21.953Z,84.90
2017-09-09T17:01:49.494Z,85.30
2017-09-09T17:04:17.150Z,85.60
2017-09-09T17:06:48.950Z,85.70
2017-09-09T17:09:16.515Z,85.80
2017-09-09T17:11:44.850Z,85.60
2017-09-09T17:14:13.179Z,85.50
2017-09-09T17:16:41.299Z,85.30
2017-09-09T17:19:08.885Z,84.90
2017-09-09T17:21:36.541Z,85.10
2017-09-09T17:24:04.521Z,85.10
2017-09-09T17:26:32.080Z,85.10
2017-09-09T17:28:59.648Z,85.00
2017-09-09T17:31:27.507Z,84.90
2017-09-09T17:33:55.092Z,84.80
2017-09-09T17:36:22.643Z,85.00
2017-09-09T17:38:55.622Z,85.00
2017-09-09T17:41:23.178Z,85.30
2017-09-09T17:43:50.761Z,85.30
2017-09-09T17:46:19.309Z,85.30
2017-09-09T17:48:46.879Z,85.10
2017-09-09T17:51:14.490Z,85.50
2017-09-09T17:53:42.513Z,85.40
2017-09-09T17:56:10.131Z,85.10
2017-09-09T17:58:37.691Z,85.00
2017-09-09T18:01:05.353Z,84.80
2017-09-09T18:03:32.973Z,84.80
2017-09-09T18:06:00.564Z,84.80
2017-09-09T18:08:32.910Z,84.90
2017-09-09T18:11:02.134Z,85.10
2017-09-09T18:13:30.281Z,85.00
2017-09-09T18:15:58.606Z,85.20
2017-09-09T18:18:26.973Z,85.20
2017-09-09T18:20:54.614Z,85.40
2017-09-09T18:23:22.922Z,85.40
2017-09-09T18:25:50.463Z,85.40
2017-09-09T18:28:18.194Z,85.40
2017-09-09T18:30:45.843Z,85.50
2017-09-09T18:33:15.498Z,86.30
2017-09-09T18:35:45.586Z,85.80
2017-09-09T18:38:13.171Z,85.70
2017-09-09T18:40:41.517Z,85.80
2017-09-09T18:43:09.066Z,85.80
2017-09-09T18:45:36.609Z,85.80
2017-09-09T18:48:04.301Z,86.10
2017-09-09T18:50:31.849Z,86.20
2017-09-09T18:52:59.394Z,86.10
2017-09-09T18:55:26.981Z,86.10
2017-09-09T18:57:54.525Z,86.00
2017-09-09T19:00:22.481Z,86.10
2017-09-09T19:02:50.021Z,86.00
2017-09-09T19:05:17.577Z,86.10
2017-09-09T19:07:45.720Z,86.10
2017-09-09T19:10:14.492Z,86.30
2017-09-09T19:12:42.040Z,86.20
2017-09-09T19:15:09.570Z,86.30
2017-09-09T19:17:37.145Z,86.40
2017-09-09T19:20:04.784Z,86.40
2017-09-09T19:22:32.366Z,86.40
2017-09-09T19:24:59.910Z,86.50
2017-09-09T19:27:27.694Z,86.60
2017-09-09T19:29:55.239Z,86.50
2017-09-09T19:32:23.238Z,86.70
2017-09-09T19:34:50.783Z,87.60
2017-09-09T19:37:18.330Z,87.10
2017-09-09T19:39:45.915Z,87.20
2017-09-09T19:42:13.582Z,87.30
2017-09-09T19:44:41.258Z,87.20
2017-09-09T19:47:09.238Z,87.40
2017-09-09T19:49:36.959Z,87.60
2017-09-09T19:52:04.653Z,87.70
2017-09-09T19:54:32.237Z,87.90
2017-09-09T19:57:00.591Z,88.30
2017-09-09T19:59:28.159Z,88.20
2017-09-09T20:01:55.746Z,88.30
2017-09-09T20:04:23.310Z,88.30
2017-09-09T20:06:50.965Z,88.30
2017-09-09T20:09:18.554Z,88.30
2017-09-09T20:11:46.196Z,88.30
2017-09-09T20:14:13.766Z,88.10
2017-09-09T20:16:41.529Z,88.30
2017-09-09T20:19:09.378Z,88.80
2017-09-09T20:21:36.963Z,89.10
2017-09-09T20:24:04.521Z,89.00
2017-09-09T20:26:32.270Z,89.00
2017-09-09T20:28:59.839Z,89.00
2017-09-09T20:31:27.389Z,89.00
2017-09-09T20:33:55.746Z,89.00
2017-09-09T20:36:23.342Z,89.00
2017-09-09T20:38:50.895Z,89.00
2017-09-09T20:41:18.540Z,89.00
2017-09-09T20:43:46.088Z,89.00
2017-09-09T20:46:13.708Z,89.10
2017-09-09T20:48:41.253Z,89.80
2017-09-09T20:51:09.557Z,89.10
2017-09-09T20:53:37.121Z,89.10
2017-09-09T20:56:04.675Z,89.20
2017-09-09T20:58:32.450Z,89.30
2017-09-09T21:01:00.001Z,89.30
2017-09-09T21:03:27.621Z,89.40
2017-09-09T21:05:55.161Z,89.40
2017-09-09T21:08:23.669Z,89.50
2017-09-09T21:10:51.216Z,89.50
2017-09-09T21:13:18.877Z,89.60
2017-09-09T21:15:46.593Z,89.60
2017-09-09T21:18:15.851Z,89.60
2017-09-09T21:20:43.873Z,89.60
2017-09-09T21:23:11.429Z,89.60
2017-09-09T21:25:38.980Z,89.70
2017-09-09T21:28:06.571Z,89.80
2017-09-09T21:30:35.521Z,89.70
2017-09-09T21:33:03.081Z,89.70
2017-09-09T21:35:30.640Z,89.80
2017-09-09T21:37:59.592Z,89.80
2017-09-09T21:40:28.063Z,89.80
2017-09-09T21:42:56.386Z,89.70
2017-09-09T21:45:24.081Z,89.50
2017-09-09T21:47:51.625Z,89.70
2017-09-09T21:50:19.182Z,89.70
2017-09-09T21:52:47.049Z,89.70
2017-09-09T21:55:14.647Z,89.70
2017-09-09T21:57:42.561Z,89.60
2017-09-09T22:00:10.163Z,89.60
2017-09-09T22:02:37.891Z,89.70
2017-09-09T22:05:06.100Z,89.70
2017-09-09T22:07:33.653Z,89.60
2017-09-09T22:10:01.250Z,89.70
2017-09-09T22:12:29.573Z,89.60
2017-09-09T22:14:57.201Z,89.50
2017-09-09T22:17:24.822Z,89.60
2017-09-09T22:19:52.410Z,89.60
2017-09-09T22:22:20.031Z,89.60
2017-09-09T22:24:47.630Z,89.50
2017-09-09T22:27:15.192Z,89.40
2017-09-09T22:29:43.442Z,89.50
2017-09-09T22:32:11.787Z,89.60
2017-09-09T22:34:39.333Z,89.60
2017-09-09T22:37:07.029Z,89.60
2017-09-09T22:39:34.574Z,89.50
2017-09-09T22:42:02.662Z,89.50
2017-09-09T22:44:30.214Z,89.40
2017-09-09T22:46:58.918Z,89.40
2017-09-09T22:49:26.592Z,89.40
2017-09-09T22:51:54.163Z,89.50
2017-09-09T22:54:23.021Z,89.50
2017-09-09T22:56:50.799Z,89.40
2017-09-09T22:59:22.448Z,89.60
2017-09-09T23:01:49.993Z,89.60
2017-09-09T23:04:17.546Z,89.70
2017-09-09T23:06:45.278Z,89.60
2017-09-09T23:09:13.336Z,89.60
2017-09-09T23:11:40.938Z,89.60
2017-09-09T23:14:09.039Z,89.70
2017-09-09T23:16:37.357Z,89.60
2017-09-09T23:19:04.971Z,89.50
2017-09-09T23:21:32.663Z,89.50
2017-09-09T23:24:00.220Z,89.60
2017-09-09T23:26:28.998Z,89.70
2017-09-09T23:28:56.553Z,89.60
2017-09-09T23:31:24.103Z,89.80
2017-09-09T23:33:51.838Z,90.00
2017-09-09T23:36:19.426Z,90.00
2017-09-09T23:38:46.973Z,90.00
2017-09-09T23:41:14.557Z,90.00
2017-09-09T23:43:42.211Z,90.00
2017-09-09T23:46:09.814Z,90.00
2017-09-09T23:48:37.601Z,90.00
2017-09-09T23:51:05.453Z,90.00
2017-09-09T23:53:33.764Z,90.00
2017-09-09T23:56:01.325Z,90.00
2017-09-09T23:58:29.069Z,90.00
